createdAt,value
2019-05-26T00:01:06.339Z,11.20
2019-05-26T00:03:34.806Z,11.53
2019-05-26T00:06:03.251Z,12.17
2019-05-26T00:08:31.664Z,11.13
2019-05-26T00:11:00.213Z,13.50
2019-05-26T00:13:28.624Z,11.83
2019-05-26T00:15:57.071Z,12.47
2019-05-26T00:18:25.516Z,11.00
2019-05-26T00:20:53.946Z,12.73
2019-05-26T00:23:22.418Z,11.80
2019-05-26T00:25:50.926Z,12.23
2019-05-26T00:28:19.374Z,13.10
2019-05-26T00:30:47.770Z,11.93
2019-05-26T00:33:16.217Z,14.13
2019-05-26T00:35:44.739Z,11.33
2019-05-26T00:38:13.170Z,12.70
2019-05-26T00:40:41.596Z,11.07
2019-05-26T00:43:10.119Z,12.10
2019-05-26T00:45:38.620Z,12.30
2019-05-26T00:48:07.248Z,12.27
2019-05-26T00:50:35.933Z,12.57
2019-05-26T00:53:04.572Z,11.77
2019-05-26T00:55:33.140Z,13.20
2019-05-26T00:58:01.576Z,11.37
2019-05-26T01:00:41.754Z,11.63
2019-05-26T01:03:11.602Z,10.47
2019-05-26T01:05:40.378Z,11.80
2019-05-26T01:08:09.456Z,11.60
2019-05-26T01:10:37.935Z,12.13
2019-05-26T01:13:06.775Z,12.00
2019-05-26T01:15:35.293Z,11.47
2019-05-26T01:18:04.349Z,12.70
2019-05-26T01:20:32.813Z,11.33
2019-05-26T01:23:01.226Z,13.17
2019-05-26T01:25:29.906Z,11.10
2019-05-26T01:27:58.397Z,12.23
2019-05-26T01:30:35.436Z,11.43
2019-05-26T01:33:04.201Z,12.23
2019-05-26T01:35:33.250Z,12.60
2019-05-26T01:38:03.851Z,12.77
2019-05-26T01:40:45.841Z,10.27
2019-05-26T01:43:14.389Z,13.50
2019-05-26T01:45:42.843Z,13.27
2019-05-26T01:48:11.522Z,12.80
2019-05-26T01:50:40.065Z,13.27
2019-05-26T01:53:08.587Z,13.57
2019-05-26T01:55:37.028Z,14.70
2019-05-26T01:58:05.759Z,13.67
2019-05-26T02:00:34.483Z,13.60
2019-05-26T02:03:02.965Z,14.10
2019-05-26T02:05:31.569Z,15.57
2019-05-26T02:08:01.368Z,15.27
2019-05-26T02:10:29.817Z,16.33
2019-05-26T02:12:58.313Z,15.03
2019-05-26T02:15:28.197Z,15.63
2019-05-26T02:17:56.611Z,16.20
2019-05-26T02:20:25.801Z,15.73
2019-05-26T02:22:54.212Z,15.80
2019-05-26T02:25:23.777Z,16.90
2019-05-26T02:27:52.283Z,15.97
2019-05-26T02:30:20.883Z,18.40
2019-05-26T02:32:50.790Z,18.60
2019-05-26T02:35:20.279Z,18.33
2019-05-26T02:37:48.694Z,28.60
2019-05-26T02:40:18.087Z,22.60
2019-05-26T02:42:46.566Z,22.97
2019-05-26T02:45:16.362Z,23.80
2019-05-26T02:47:45.890Z,23.70
2019-05-26T02:50:15.880Z,24.10
2019-05-26T02:52:44.441Z,26.37
2019-05-26T02:55:13.529Z,24.13
2019-05-26T02:57:41.955Z,25.13
2019-05-26T03:00:11.873Z,26.10
2019-05-26T03:02:40.544Z,28.20
2019-05-26T03:05:13.779Z,38.20
2019-05-26T03:07:44.533Z,29.60
2019-05-26T03:10:14.905Z,30.17
2019-05-26T03:12:43.717Z,27.93
2019-05-26T03:15:13.792Z,27.80
2019-05-26T03:17:43.245Z,26.83
2019-05-26T03:20:15.347Z,38.07
2019-05-26T03:22:45.512Z,35.07
2019-05-26T03:25:14.774Z,35.20
2019-05-26T03:27:43.208Z,32.50
2019-05-26T03:30:12.869Z,32.87
2019-05-26T03:32:41.312Z,35.07
2019-05-26T03:35:10.231Z,36.27
2019-05-26T03:37:38.756Z,34.37
2019-05-26T03:40:08.401Z,33.87
2019-05-26T03:42:36.898Z,37.07
2019-05-26T03:45:06.859Z,35.27
2019-05-26T03:47:35.299Z,59.43
2019-05-26T03:50:08.027Z,54.43
2019-05-26T03:52:36.587Z,40.73
2019-05-26T03:55:06.948Z,45.00
2019-05-26T03:57:36.584Z,42.57
2019-05-26T04:00:06.880Z,39.37
2019-05-26T04:02:35.390Z,39.60
2019-05-26T04:05:05.943Z,40.93
2019-05-26T04:07:34.476Z,40.10
2019-05-26T04:10:06.777Z,40.67
2019-05-26T04:12:35.352Z,48.53
2019-05-26T04:15:08.421Z,42.53
2019-05-26T04:17:36.872Z,38.60
2019-05-26T04:20:06.439Z,38.97
2019-05-26T04:22:34.893Z,37.47
2019-05-26T04:25:05.118Z,37.47
2019-05-26T04:27:33.724Z,35.33
2019-05-26T04:30:02.300Z,35.53
2019-05-26T04:32:30.748Z,37.40
2019-05-26T04:34:59.166Z,36.53
2019-05-26T04:37:27.614Z,35.40
2019-05-26T04:39:56.737Z,35.27
2019-05-26T04:42:25.150Z,32.00
2019-05-26T04:44:55.594Z,32.07
2019-05-26T04:47:24.017Z,32.07
2019-05-26T04:49:52.624Z,29.83
2019-05-26T04:52:21.051Z,28.73
2019-05-26T04:54:49.474Z,28.33
2019-05-26T04:57:17.939Z,28.00
2019-05-26T04:59:46.369Z,29.07
2019-05-26T05:02:14.797Z,27.17
2019-05-26T05:04:46.201Z,26.07
2019-05-26T05:07:15.315Z,24.90
2019-05-26T05:09:43.739Z,25.43
2019-05-26T05:12:12.644Z,23.43
2019-05-26T05:14:41.147Z,21.60
2019-05-26T05:17:09.582Z,23.10
2019-05-26T05:19:37.997Z,21.00
2019-05-26T05:22:06.443Z,21.07
2019-05-26T05:24:34.853Z,21.20
2019-05-26T05:27:03.304Z,21.00
2019-05-26T05:29:31.744Z,20.43
2019-05-26T05:32:00.179Z,19.07
2019-05-26T05:34:28.624Z,17.93
2019-05-26T05:36:57.086Z,17.67
2019-05-26T05:39:25.533Z,18.00
2019-05-26T05:41:56.571Z,16.10
2019-05-26T05:44:25.009Z,17.60
2019-05-26T05:46:53.565Z,16.23
2019-05-26T05:49:22.042Z,16.93
2019-05-26T05:51:50.497Z,15.93
2019-05-26T05:54:18.991Z,15.30
2019-05-26T05:56:47.547Z,16.33
2019-05-26T05:59:16.005Z,15.30
2019-05-26T06:01:44.507Z,15.23
2019-05-26T06:04:13.049Z,14.30
2019-05-26T06:06:42.845Z,15.17
2019-05-26T06:09:11.390Z,15.20
2019-05-26T06:11:39.857Z,14.40
2019-05-26T06:14:08.379Z,14.07
2019-05-26T06:16:36.813Z,14.60
2019-05-26T06:19:05.291Z,14.60
2019-05-26T06:21:33.826Z,13.37
2019-05-26T06:24:02.283Z,12.90
2019-05-26T06:26:30.787Z,12.90
2019-05-26T06:28:59.204Z,12.10
2019-05-26T06:31:27.673Z,12.37
2019-05-26T06:33:56.091Z,10.93
2019-05-26T06:36:24.550Z,10.70
2019-05-26T06:38:52.978Z,10.30
2019-05-26T06:41:32.827Z,11.50
2019-05-26T06:43:51.626Z,10.80
2019-05-26T06:46:20.113Z,10.83
2019-05-26T06:48:48.749Z,10.23
2019-05-26T06:51:17.318Z,10.50
2019-05-26T06:53:45.871Z,10.17
2019-05-26T06:56:14.551Z,10.00
2019-05-26T06:58:44.780Z,8.60
2019-05-26T07:01:13.224Z,12.90
2019-05-26T07:03:41.675Z,8.53
2019-05-26T07:06:10.225Z,8.30
2019-05-26T07:08:38.721Z,7.90
2019-05-26T07:11:07.213Z,8.38
2019-05-26T07:13:35.661Z,7.97
2019-05-26T07:16:04.581Z,8.10
2019-05-26T07:18:33.080Z,7.45
2019-05-26T07:21:01.502Z,7.78
2019-05-26T07:23:29.949Z,7.92
2019-05-26T07:25:58.400Z,6.95
2019-05-26T07:28:26.820Z,7.03
2019-05-26T07:30:55.328Z,6.20
2019-05-26T07:33:23.786Z,6.10
2019-05-26T07:35:52.225Z,6.65
2019-05-26T07:38:20.800Z,7.40
2019-05-26T07:40:49.342Z,5.95
2019-05-26T07:43:17.907Z,5.72
2019-05-26T07:45:46.307Z,6.37
2019-05-26T07:48:15.042Z,6.12
2019-05-26T07:50:43.733Z,5.62
2019-05-26T07:53:12.186Z,5.60
2019-05-26T07:55:40.640Z,4.55
2019-05-26T07:58:09.226Z,4.15
2019-05-26T08:00:43.917Z,4.03
2019-05-26T08:03:16.203Z,4.75
2019-05-26T08:05:51.637Z,4.65
2019-05-26T08:08:29.110Z,4.30
2019-05-26T08:10:59.371Z,3.60
2019-05-26T08:13:32.718Z,4.80
2019-05-26T08:16:07.110Z,4.40
2019-05-26T08:18:39.652Z,3.75
2019-05-26T08:21:13.206Z,3.50
2019-05-26T08:23:41.606Z,3.65
2019-05-26T08:26:10.198Z,3.58
2019-05-26T08:28:41.165Z,4.03
2019-05-26T08:31:15.284Z,4.33
2019-05-26T08:33:48.507Z,3.70
2019-05-26T08:36:18.327Z,4.10
2019-05-26T08:38:46.772Z,3.27
2019-05-26T08:41:18.359Z,3.52
2019-05-26T08:43:49.478Z,3.25
2019-05-26T08:46:19.945Z,3.30
2019-05-26T08:48:48.183Z,4.37
2019-05-26T08:51:18.468Z,3.10
2019-05-26T08:53:50.332Z,3.25
2019-05-26T08:56:18.769Z,2.52
2019-05-26T08:58:48.712Z,3.00
2019-05-26T09:01:20.286Z,3.12
2019-05-26T09:03:51.300Z,2.52
2019-05-26T09:06:20.106Z,2.45
2019-05-26T09:08:49.967Z,2.37
2019-05-26T09:11:21.579Z,2.17
2019-05-26T09:13:57.806Z,1.70
2019-05-26T09:16:28.446Z,2.10
2019-05-26T09:19:00.320Z,1.90
2019-05-26T09:21:28.764Z,2.15
2019-05-26T09:23:58.336Z,1.92
2019-05-26T09:26:29.253Z,2.15
2019-05-26T09:29:02.539Z,1.70
2019-05-26T09:31:35.189Z,2.10
2019-05-26T09:34:03.513Z,2.00
2019-05-26T09:36:31.932Z,1.50
2019-05-26T09:39:05.512Z,2.20
2019-05-26T09:41:37.838Z,1.50
2019-05-26T09:44:10.444Z,1.70
2019-05-26T09:46:39.286Z,1.50
2019-05-26T09:49:08.054Z,1.70
2019-05-26T09:51:39.506Z,1.47
2019-05-26T09:54:12.643Z,1.70
2019-05-26T09:56:44.833Z,1.57
2019-05-26T09:59:13.370Z,2.60
2019-05-26T10:01:41.806Z,2.00
2019-05-26T10:04:14.338Z,2.00
2019-05-26T10:06:46.336Z,1.60
2019-05-26T10:09:21.670Z,2.03
2019-05-26T10:11:54.630Z,1.77
2019-05-26T10:14:23.345Z,1.83
2019-05-26T10:16:52.122Z,2.03
2019-05-26T10:19:23.445Z,2.07
2019-05-26T10:21:56.429Z,1.73
2019-05-26T10:24:29.756Z,1.97
2019-05-26T10:26:59.667Z,2.00
2019-05-26T10:29:28.397Z,2.40
2019-05-26T10:31:58.638Z,3.50
2019-05-26T10:34:31.672Z,2.37
2019-05-26T10:37:04.214Z,2.27
2019-05-26T10:39:32.857Z,2.63
2019-05-26T10:42:01.328Z,3.33
2019-05-26T10:44:32.993Z,2.30
2019-05-26T10:47:05.391Z,2.23
2019-05-26T10:49:33.833Z,12.47
2019-05-26T10:52:02.530Z,3.73
2019-05-26T10:54:31.114Z,2.77
2019-05-26T10:56:59.535Z,2.87
2019-05-26T10:59:28.079Z,2.13
2019-05-26T11:01:56.604Z,2.27
2019-05-26T11:04:25.047Z,2.00
2019-05-26T11:06:53.528Z,2.40
2019-05-26T11:09:22.013Z,2.10
2019-05-26T11:11:50.464Z,2.20
2019-05-26T11:14:18.918Z,2.10
2019-05-26T11:16:47.414Z,1.73
2019-05-26T11:19:15.936Z,2.07
2019-05-26T11:21:44.399Z,2.10
2019-05-26T11:24:12.854Z,2.63
2019-05-26T11:26:41.320Z,1.90
2019-05-26T11:29:12.992Z,2.00
2019-05-26T11:31:41.444Z,2.20
2019-05-26T11:34:09.996Z,1.50
2019-05-26T11:36:38.460Z,1.50
2019-05-26T11:39:08.123Z,2.10
2019-05-26T11:41:36.652Z,1.97
2019-05-26T11:44:17.070Z,2.10
2019-05-26T11:46:35.507Z,1.90
2019-05-26T11:49:03.980Z,1.90
2019-05-26T11:51:32.513Z,2.13
2019-05-26T11:54:01.084Z,2.40
2019-05-26T11:56:29.649Z,1.80
2019-05-26T11:58:58.112Z,1.97
2019-05-26T12:01:26.696Z,1.97
2019-05-26T12:03:55.166Z,1.77
2019-05-26T12:06:23.593Z,1.60
2019-05-26T12:08:52.156Z,1.97
2019-05-26T12:11:20.663Z,2.33
2019-05-26T12:13:49.091Z,1.70
2019-05-26T12:16:17.555Z,1.83
2019-05-26T12:18:45.992Z,2.17
2019-05-26T12:21:14.486Z,1.80
2019-05-26T12:23:42.937Z,3.50
2019-05-26T12:26:11.398Z,2.60
2019-05-26T12:28:39.876Z,1.97
2019-05-26T12:31:08.320Z,2.00
2019-05-26T12:33:36.721Z,2.17
2019-05-26T12:36:05.526Z,2.30
2019-05-26T12:38:35.608Z,2.43
2019-05-26T12:41:04.117Z,1.70
2019-05-26T12:43:32.642Z,1.70
2019-05-26T12:46:01.084Z,1.90
2019-05-26T12:48:29.540Z,1.87
2019-05-26T12:50:58.128Z,2.00
2019-05-26T12:53:26.572Z,1.70
2019-05-26T12:55:55.018Z,2.10
2019-05-26T12:58:23.465Z,2.40
2019-05-26T13:00:54.787Z,2.00
2019-05-26T13:03:22.221Z,1.87
2019-05-26T13:05:50.654Z,2.50
2019-05-26T13:08:19.205Z,2.30
2019-05-26T13:10:47.735Z,2.00
2019-05-26T13:13:16.546Z,2.40
2019-05-26T13:15:44.962Z,1.93
2019-05-26T13:18:13.652Z,2.17
2019-05-26T13:20:42.143Z,2.23
2019-05-26T13:23:10.644Z,2.80
2019-05-26T13:25:39.154Z,2.20
2019-05-26T13:28:07.689Z,2.40
2019-05-26T13:30:36.387Z,2.30
2019-05-26T13:33:05.393Z,2.50
2019-05-26T13:35:33.947Z,2.50
2019-05-26T13:38:02.382Z,2.07
2019-05-26T13:40:30.833Z,3.00
2019-05-26T13:42:59.271Z,2.93
2019-05-26T13:45:27.761Z,2.27
2019-05-26T13:47:56.312Z,2.60
2019-05-26T13:50:25.264Z,2.50
2019-05-26T13:52:53.779Z,2.10
2019-05-26T13:55:23.590Z,1.90
2019-05-26T13:57:52.566Z,3.10
2019-05-26T14:02:56.756Z,4.50
2019-05-26T14:05:29.680Z,2.33
2019-05-26T14:07:58.888Z,2.20
2019-05-26T14:10:38.521Z,2.50
2019-05-26T14:13:11.993Z,2.73
2019-05-26T14:15:41.804Z,4.13
2019-05-26T14:18:11.201Z,3.70
2019-05-26T14:20:42.591Z,5.10
2019-05-26T14:23:11.871Z,2.23
2019-05-26T14:25:40.585Z,3.00
2019-05-26T14:28:09.176Z,2.90
2019-05-26T14:30:37.960Z,2.43
2019-05-26T14:33:06.752Z,2.50
2019-05-26T14:35:35.200Z,2.30
2019-05-26T14:38:03.704Z,2.80
2019-05-26T14:40:32.211Z,2.77
2019-05-26T14:43:00.646Z,3.37
2019-05-26T14:45:29.116Z,2.63
2019-05-26T14:47:57.552Z,3.20
2019-05-26T14:50:26.628Z,3.00
2019-05-26T14:52:55.147Z,3.60
2019-05-26T14:55:23.778Z,4.50
2019-05-26T14:57:52.218Z,3.27
2019-05-26T15:00:21.381Z,4.70
2019-05-26T15:02:49.821Z,3.10
2019-05-26T15:05:18.533Z,2.87
2019-05-26T15:07:47.802Z,3.50
2019-05-26T15:10:16.612Z,3.30
2019-05-26T15:12:45.051Z,3.00
2019-05-26T15:15:15.002Z,3.10
2019-05-26T15:17:43.453Z,3.37
2019-05-26T15:20:13.577Z,9.00
2019-05-26T15:22:42.025Z,3.40
2019-05-26T15:25:10.522Z,3.70
2019-05-26T15:27:39.033Z,2.50
2019-05-26T15:30:09.205Z,2.90
2019-05-26T15:32:37.649Z,3.60
2019-05-26T15:35:07.526Z,2.77
2019-05-26T15:37:35.981Z,3.07
2019-05-26T15:40:06.375Z,3.57
2019-05-26T15:42:34.800Z,2.80
2019-05-26T15:45:03.716Z,3.70
2019-05-26T15:47:32.145Z,3.30
2019-05-26T15:50:00.586Z,3.40
2019-05-26T15:52:29.123Z,3.30
2019-05-26T15:54:57.538Z,3.80
2019-05-26T15:57:26.048Z,4.50
2019-05-26T15:59:54.737Z,12.00
2019-05-26T16:02:23.413Z,12.20
2019-05-26T16:04:51.867Z,5.30
2019-05-26T16:07:20.313Z,3.40
2019-05-26T16:09:48.925Z,3.07
2019-05-26T16:12:17.458Z,3.20
2019-05-26T16:14:46.017Z,3.57
2019-05-26T16:17:14.474Z,3.90
2019-05-26T16:19:42.943Z,3.73
2019-05-26T16:22:11.398Z,3.17
2019-05-26T16:24:44.133Z,13.50
2019-05-26T16:27:19.101Z,8.33
2019-05-26T16:29:42.845Z,4.43
2019-05-26T16:32:11.385Z,4.47
2019-05-26T16:34:39.805Z,3.60
2019-05-26T16:37:08.266Z,4.90
2019-05-26T16:39:37.530Z,4.00
2019-05-26T16:42:06.135Z,4.10
2019-05-26T16:44:34.589Z,4.03
2019-05-26T16:47:03.076Z,4.73
2019-05-26T16:49:31.525Z,3.50
2019-05-26T16:51:59.949Z,4.17
2019-05-26T16:54:28.389Z,5.60
2019-05-26T16:56:56.861Z,17.77
2019-05-26T16:59:25.279Z,6.97
2019-05-26T17:01:53.723Z,3.77
2019-05-26T17:04:22.215Z,3.90
2019-05-26T17:06:50.649Z,3.40
2019-05-26T17:09:19.138Z,4.53
2019-05-26T17:11:47.697Z,5.87
2019-05-26T17:14:16.179Z,15.47
2019-05-26T17:16:44.609Z,5.00
2019-05-26T17:19:13.106Z,7.90
2019-05-26T17:21:41.553Z,7.53
2019-05-26T17:24:10.005Z,8.00
2019-05-26T17:26:38.501Z,6.17
2019-05-26T17:29:06.921Z,4.00
2019-05-26T17:31:35.401Z,4.80
2019-05-26T17:34:04.011Z,21.00
2019-05-26T17:36:32.416Z,7.43
2019-05-26T17:39:00.933Z,5.13
2019-05-26T17:41:29.343Z,4.10
2019-05-26T17:43:57.917Z,4.80
2019-05-26T17:46:26.532Z,15.70
2019-05-26T17:48:54.982Z,16.10
2019-05-26T17:51:23.432Z,7.23
2019-05-26T17:53:51.881Z,5.10
2019-05-26T17:56:20.287Z,4.97
2019-05-26T17:58:48.779Z,5.00
2019-05-26T18:01:17.196Z,6.03
2019-05-26T18:03:45.713Z,4.73
2019-05-26T18:06:14.155Z,4.97
2019-05-26T18:08:42.587Z,3.97
2019-05-26T18:11:11.551Z,15.80
2019-05-26T18:13:39.981Z,20.20
2019-05-26T18:16:08.433Z,8.50
2019-05-26T18:18:36.880Z,5.00
2019-05-26T18:21:05.385Z,3.60
2019-05-26T18:23:33.801Z,4.27
2019-05-26T18:26:02.250Z,6.97
2019-05-26T18:28:30.679Z,4.73
2019-05-26T18:30:59.145Z,4.17
2019-05-26T18:33:27.619Z,3.10
2019-05-26T18:35:56.124Z,2.87
2019-05-26T18:38:24.531Z,3.80
2019-05-26T18:40:52.996Z,9.23
2019-05-26T18:43:21.404Z,4.93
2019-05-26T18:45:49.848Z,3.40
2019-05-26T18:48:18.265Z,6.90
2019-05-26T18:50:46.721Z,4.20
2019-05-26T18:53:15.162Z,4.60
2019-05-26T18:55:43.642Z,3.70
2019-05-26T18:58:12.076Z,3.63
2019-05-26T19:00:40.525Z,6.57
2019-05-26T19:03:08.964Z,5.03
2019-05-26T19:05:38.440Z,4.30
2019-05-26T19:08:07.220Z,9.00
2019-05-26T19:10:35.743Z,19.13
2019-05-26T19:13:04.421Z,10.07
2019-05-26T19:15:32.868Z,7.17
2019-05-26T19:18:01.306Z,4.83
2019-05-26T19:20:29.739Z,4.80
2019-05-26T19:22:58.303Z,4.97
2019-05-26T19:25:26.749Z,6.77
2019-05-26T19:27:55.167Z,5.00
2019-05-26T19:30:23.834Z,19.40
2019-05-26T19:32:52.305Z,12.50
2019-05-26T19:35:20.973Z,33.10
2019-05-26T19:37:49.516Z,23.27
2019-05-26T19:40:18.379Z,11.10
2019-05-26T19:42:46.816Z,6.17
2019-05-26T19:45:15.309Z,6.93
2019-05-26T19:47:43.828Z,4.43
2019-05-26T19:50:12.584Z,27.93
2019-05-26T19:52:40.993Z,15.17
2019-05-26T19:55:09.672Z,7.43
2019-05-26T19:57:38.129Z,7.17
2019-05-26T20:00:12.601Z,5.47
2019-05-26T20:02:41.291Z,6.03
2019-05-26T20:05:10.183Z,3.70
2019-05-26T20:07:38.669Z,4.23
2019-05-26T20:10:08.174Z,3.57
2019-05-26T20:12:36.754Z,3.93
2019-05-26T20:15:07.044Z,3.70
2019-05-26T20:17:35.488Z,3.67
2019-05-26T20:20:06.338Z,4.20
2019-05-26T20:22:34.783Z,4.40
2019-05-26T20:25:03.593Z,4.40
2019-05-26T20:27:32.050Z,4.73
2019-05-26T20:30:00.513Z,4.47
2019-05-26T20:32:28.923Z,4.73
2019-05-26T20:34:57.387Z,5.67
2019-05-26T20:37:25.857Z,5.20
2019-05-26T20:39:54.267Z,5.40
2019-05-26T20:42:22.769Z,6.20
2019-05-26T20:44:51.227Z,4.90
2019-05-26T20:47:19.648Z,5.70
2019-05-26T20:49:48.144Z,5.60
2019-05-26T20:52:16.650Z,6.13
2019-05-26T20:54:45.074Z,5.43
2019-05-26T20:57:13.527Z,5.07
2019-05-26T20:59:42.210Z,5.40
2019-05-26T21:02:10.629Z,5.17
2019-05-26T21:04:39.131Z,6.20
2019-05-26T21:07:07.786Z,4.93
2019-05-26T21:09:36.213Z,5.03
2019-05-26T21:12:04.805Z,4.43
2019-05-26T21:14:33.285Z,6.00
2019-05-26T21:17:01.744Z,6.40
2019-05-26T21:19:30.166Z,6.17
2019-05-26T21:21:58.621Z,6.83
2019-05-26T21:24:27.030Z,6.20
2019-05-26T21:26:55.525Z,6.30
2019-05-26T21:29:24.697Z,6.70
2019-05-26T21:31:53.169Z,6.60
2019-05-26T21:34:21.863Z,6.63
2019-05-26T21:36:50.370Z,7.50
2019-05-26T21:39:18.852Z,7.37
2019-05-26T21:41:47.290Z,7.30
2019-05-26T21:44:15.742Z,7.43
2019-05-26T21:46:44.172Z,8.53
2019-05-26T21:49:12.604Z,7.83
2019-05-26T21:51:41.082Z,7.93
2019-05-26T21:54:09.500Z,8.77
2019-05-26T21:56:37.950Z,9.77
2019-05-26T21:59:06.502Z,7.90
2019-05-26T22:01:35.025Z,8.47
2019-05-26T22:04:05.522Z,10.20
2019-05-26T22:06:33.965Z,9.20
2019-05-26T22:09:02.400Z,9.30
2019-05-26T22:11:30.898Z,10.47
2019-05-26T22:13:59.327Z,9.20
2019-05-26T22:16:27.763Z,9.33
2019-05-26T22:18:59.495Z,8.87
2019-05-26T22:21:26.554Z,10.23
2019-05-26T22:23:55.000Z,10.30
2019-05-26T22:26:23.456Z,8.20
2019-05-26T22:28:52.078Z,9.00
2019-05-26T22:31:20.534Z,9.20
2019-05-26T22:33:48.970Z,8.33
2019-05-26T22:36:17.412Z,8.90
2019-05-26T22:38:45.839Z,8.83
2019-05-26T22:41:14.303Z,8.20
2019-05-26T22:43:42.746Z,7.97
2019-05-26T22:46:11.208Z,8.30
2019-05-26T22:48:39.661Z,10.10
2019-05-26T22:51:08.094Z,7.10
2019-05-26T22:53:36.581Z,7.40
2019-05-26T22:56:05.072Z,8.23
2019-05-26T22:58:33.503Z,8.17
2019-05-26T23:01:02.036Z,8.03
2019-05-26T23:03:30.449Z,7.97
2019-05-26T23:05:58.890Z,6.47
2019-05-26T23:08:27.312Z,7.67
2019-05-26T23:10:55.728Z,6.70
2019-05-26T23:13:24.174Z,5.80
2019-05-26T23:15:52.597Z,6.93
2019-05-26T23:18:21.012Z,6.43
2019-05-26T23:20:57.407Z,5.73
2019-05-26T23:23:25.833Z,5.60
2019-05-26T23:25:54.764Z,6.03
2019-05-26T23:28:23.232Z,6.30
2019-05-26T23:30:51.666Z,5.57
2019-05-26T23:33:20.092Z,6.37
2019-05-26T23:35:48.539Z,5.30
2019-05-26T23:38:16.982Z,6.50
2019-05-26T23:40:45.442Z,5.70
2019-05-26T23:43:13.884Z,4.93
2019-05-26T23:45:42.293Z,5.23
2019-05-26T23:48:10.725Z,5.27
2019-05-26T23:50:39.167Z,4.90
2019-05-26T23:53:07.582Z,5.50
2019-05-26T23:55:36.016Z,4.90
2019-05-26T23:58:04.502Z,4.47
